sensor_id;sensor_type;location;lat;lon;timestamp;P1;durP1;ratioP1;P2;durP2;ratioP2
76051;SDS011;64751;48.708;9.710;2024-02-21T00:00:16;3.67;;;1.80;;
76051;SDS011;64751;48.708;9.710;2024-02-21T00:02:45;2.65;;;1.80;;
76051;SDS011;64751;48.708;9.710;2024-02-21T00:05:14;3.03;;;2.00;;
76051;SDS011;64751;48.708;9.710;2024-02-21T00:07:47;2.53;;;1.83;;
76051;SDS011;64751;48.708;9.710;2024-02-21T00:10:20;3.97;;;1.88;;
76051;SDS011;64751;48.708;9.710;2024-02-21T00:12:47;2.55;;;1.85;;
76051;SDS011;64751;48.708;9.710;2024-02-21T00:15:15;2.15;;;1.70;;
76051;SDS011;64751;48.708;9.710;2024-02-21T00:17:47;4.30;;;2.08;;
76051;SDS011;64751;48.708;9.710;2024-02-21T00:20:21;2.80;;;1.90;;
76051;SDS011;64751;48.708;9.710;2024-02-21T00:22:48;2.75;;;1.70;;
76051;SDS011;64751;48.708;9.710;2024-02-21T00:25:16;2.78;;;1.77;;
76051;SDS011;64751;48.708;9.710;2024-02-21T00:27:43;2.60;;;1.70;;
76051;SDS011;64751;48.708;9.710;2024-02-21T00:30:16;3.13;;;1.80;;
76051;SDS011;64751;48.708;9.710;2024-02-21T00:32:43;2.78;;;1.80;;
76051;SDS011;64751;48.708;9.710;2024-02-21T00:35:10;2.95;;;1.90;;
76051;SDS011;64751;48.708;9.710;2024-02-21T00:37:44;3.33;;;2.00;;
76051;SDS011;64751;48.708;9.710;2024-02-21T00:40:17;4.30;;;1.80;;
76051;SDS011;64751;48.708;9.710;2024-02-21T00:42:46;3.10;;;2.00;;
76051;SDS011;64751;48.708;9.710;2024-02-21T00:45:14;3.13;;;1.90;;
76051;SDS011;64751;48.708;9.710;2024-02-21T00:47:41;3.10;;;1.73;;
76051;SDS011;64751;48.708;9.710;2024-02-21T00:50:14;4.18;;;1.90;;
76051;SDS011;64751;48.708;9.710;2024-02-21T00:52:48;3.90;;;2.25;;
76051;SDS011;64751;48.708;9.710;2024-02-21T00:55:20;2.80;;;1.70;;
76051;SDS011;64751;48.708;9.710;2024-02-21T00:57:48;2.08;;;1.55;;
76051;SDS011;64751;48.708;9.710;2024-02-21T01:00:15;3.92;;;1.70;;
76051;SDS011;64751;48.708;9.710;2024-02-21T01:02:48;3.08;;;1.60;;
76051;SDS011;64751;48.708;9.710;2024-02-21T01:05:16;3.22;;;1.90;;
76051;SDS011;64751;48.708;9.710;2024-02-21T01:07:50;2.47;;;1.70;;
76051;SDS011;64751;48.708;9.710;2024-02-21T01:10:22;2.97;;;1.80;;
76051;SDS011;64751;48.708;9.710;2024-02-21T01:12:55;2.88;;;1.70;;
76051;SDS011;64751;48.708;9.710;2024-02-21T01:15:28;2.47;;;1.77;;
76051;SDS011;64751;48.708;9.710;2024-02-21T01:18:00;2.60;;;1.75;;
76051;SDS011;64751;48.708;9.710;2024-02-21T01:20:32;2.63;;;1.30;;
76051;SDS011;64751;48.708;9.710;2024-02-21T01:23:06;2.83;;;1.80;;
76051;SDS011;64751;48.708;9.710;2024-02-21T01:25:38;2.20;;;1.42;;
76051;SDS011;64751;48.708;9.710;2024-02-21T01:28:11;3.63;;;1.90;;
76051;SDS011;64751;48.708;9.710;2024-02-21T01:30:38;3.40;;;1.83;;
76051;SDS011;64751;48.708;9.710;2024-02-21T01:33:11;4.32;;;2.00;;
76051;SDS011;64751;48.708;9.710;2024-02-21T01:35:43;3.17;;;2.00;;
76051;SDS011;64751;48.708;9.710;2024-02-21T01:38:16;2.88;;;2.03;;
76051;SDS011;64751;48.708;9.710;2024-02-21T01:40:44;2.95;;;1.92;;
76051;SDS011;64751;48.708;9.710;2024-02-21T01:43:17;2.60;;;1.88;;
76051;SDS011;64751;48.708;9.710;2024-02-21T01:45:46;3.60;;;1.92;;
76051;SDS011;64751;48.708;9.710;2024-02-21T01:48:21;3.85;;;1.95;;
76051;SDS011;64751;48.708;9.710;2024-02-21T01:50:54;2.72;;;1.75;;
76051;SDS011;64751;48.708;9.710;2024-02-21T01:53:30;3.17;;;2.03;;
76051;SDS011;64751;48.708;9.710;2024-02-21T01:55:59;3.28;;;2.00;;
76051;SDS011;64751;48.708;9.710;2024-02-21T01:58:33;2.95;;;1.85;;
76051;SDS011;64751;48.708;9.710;2024-02-21T02:01:04;4.05;;;2.00;;
76051;SDS011;64751;48.708;9.710;2024-02-21T02:03:32;5.15;;;2.17;;
76051;SDS011;64751;48.708;9.710;2024-02-21T02:06:05;3.60;;;2.13;;
76051;SDS011;64751;48.708;9.710;2024-02-21T02:08:34;4.38;;;2.20;;
76051;SDS011;64751;48.708;9.710;2024-02-21T02:11:02;3.08;;;2.03;;
76051;SDS011;64751;48.708;9.710;2024-02-21T02:13:30;2.42;;;1.80;;
76051;SDS011;64751;48.708;9.710;2024-02-21T02:15:57;4.45;;;1.90;;
76051;SDS011;64751;48.708;9.710;2024-02-21T02:18:30;2.50;;;1.88;;
76051;SDS011;64751;48.708;9.710;2024-02-21T02:21:03;2.50;;;1.80;;
76051;SDS011;64751;48.708;9.710;2024-02-21T02:23:38;3.72;;;1.80;;
76051;SDS011;64751;48.708;9.710;2024-02-21T02:26:10;2.08;;;1.40;;
76051;SDS011;64751;48.708;9.710;2024-02-21T02:28:38;3.47;;;1.92;;
76051;SDS011;64751;48.708;9.710;2024-02-21T02:31:10;3.58;;;1.73;;
76051;SDS011;64751;48.708;9.710;2024-02-21T02:33:42;2.88;;;1.77;;
76051;SDS011;64751;48.708;9.710;2024-02-21T02:36:11;2.80;;;1.90;;
76051;SDS011;64751;48.708;9.710;2024-02-21T02:38:40;2.83;;;1.40;;
76051;SDS011;64751;48.708;9.710;2024-02-21T02:41:08;2.35;;;1.70;;
76051;SDS011;64751;48.708;9.710;2024-02-21T02:43:35;4.15;;;1.70;;
76051;SDS011;64751;48.708;9.710;2024-02-21T02:46:07;2.65;;;1.65;;
76051;SDS011;64751;48.708;9.710;2024-02-21T02:48:40;3.58;;;1.70;;
76051;SDS011;64751;48.708;9.710;2024-02-21T02:51:07;3.65;;;2.00;;
76051;SDS011;64751;48.708;9.710;2024-02-21T02:53:41;3.00;;;1.70;;
76051;SDS011;64751;48.708;9.710;2024-02-21T02:56:14;3.10;;;1.90;;
76051;SDS011;64751;48.708;9.710;2024-02-21T02:58:47;3.75;;;1.80;;
76051;SDS011;64751;48.708;9.710;2024-02-21T03:01:14;4.93;;;2.28;;
76051;SDS011;64751;48.708;9.710;2024-02-21T03:03:42;2.63;;;1.60;;
76051;SDS011;64751;48.708;9.710;2024-02-21T03:06:16;3.03;;;2.20;;
76051;SDS011;64751;48.708;9.710;2024-02-21T03:08:45;2.97;;;2.03;;
76051;SDS011;64751;48.708;9.710;2024-02-21T03:11:12;4.30;;;2.10;;
76051;SDS011;64751;48.708;9.710;2024-02-21T03:13:44;2.72;;;1.90;;
76051;SDS011;64751;48.708;9.710;2024-02-21T03:16:12;4.03;;;2.10;;
76051;SDS011;64751;48.708;9.710;2024-02-21T03:18:44;2.92;;;2.13;;
76051;SDS011;64751;48.708;9.710;2024-02-21T03:21:16;2.78;;;2.15;;
76051;SDS011;64751;48.708;9.710;2024-02-21T03:23:50;2.70;;;2.00;;
76051;SDS011;64751;48.708;9.710;2024-02-21T03:26:23;4.95;;;2.30;;
76051;SDS011;64751;48.708;9.710;2024-02-21T03:28:50;5.35;;;2.28;;
76051;SDS011;64751;48.708;9.710;2024-02-21T03:31:22;3.90;;;2.08;;
76051;SDS011;64751;48.708;9.710;2024-02-21T03:33:50;3.60;;;2.22;;
76051;SDS011;64751;48.708;9.710;2024-02-21T03:36:22;4.18;;;2.28;;
76051;SDS011;64751;48.708;9.710;2024-02-21T03:38:56;3.35;;;2.20;;
76051;SDS011;64751;48.708;9.710;2024-02-21T03:41:23;2.70;;;1.92;;
76051;SDS011;64751;48.708;9.710;2024-02-21T03:43:55;4.18;;;2.20;;
76051;SDS011;64751;48.708;9.710;2024-02-21T03:46:28;3.55;;;2.00;;
76051;SDS011;64751;48.708;9.710;2024-02-21T03:49:00;3.35;;;2.00;;
76051;SDS011;64751;48.708;9.710;2024-02-21T03:51:28;2.92;;;2.08;;
76051;SDS011;64751;48.708;9.710;2024-02-21T03:53:57;3.05;;;1.70;;
76051;SDS011;64751;48.708;9.710;2024-02-21T03:56:24;3.28;;;2.00;;
76051;SDS011;64751;48.708;9.710;2024-02-21T03:58:56;3.13;;;2.22;;
76051;SDS011;64751;48.708;9.710;2024-02-21T04:01:29;4.28;;;2.13;;
76051;SDS011;64751;48.708;9.710;2024-02-21T04:03:57;2.72;;;1.80;;
76051;SDS011;64751;48.708;9.710;2024-02-21T04:06:24;3.53;;;1.88;;
76051;SDS011;64751;48.708;9.710;2024-02-21T04:08:58;3.05;;;1.90;;
76051;SDS011;64751;48.708;9.710;2024-02-21T04:11:25;3.10;;;2.08;;
76051;SDS011;64751;48.708;9.710;2024-02-21T04:13:53;2.97;;;2.08;;
76051;SDS011;64751;48.708;9.710;2024-02-21T04:16:20;3.72;;;2.00;;
76051;SDS011;64751;48.708;9.710;2024-02-21T04:18:47;3.08;;;2.05;;
76051;SDS011;64751;48.708;9.710;2024-02-21T04:21:20;2.88;;;2.20;;
76051;SDS011;64751;48.708;9.710;2024-02-21T04:23:52;2.53;;;1.85;;
76051;SDS011;64751;48.708;9.710;2024-02-21T04:26:26;2.97;;;1.83;;
76051;SDS011;64751;48.708;9.710;2024-02-21T04:28:58;3.67;;;1.73;;
76051;SDS011;64751;48.708;9.710;2024-02-21T04:31:25;4.35;;;2.00;;
76051;SDS011;64751;48.708;9.710;2024-02-21T04:33:53;4.30;;;1.92;;
76051;SDS011;64751;48.708;9.710;2024-02-21T04:36:20;2.95;;;2.08;;
76051;SDS011;64751;48.708;9.710;2024-02-21T04:38:53;3.67;;;1.73;;
76051;SDS011;64751;48.708;9.710;2024-02-21T04:41:26;4.28;;;1.83;;
76051;SDS011;64751;48.708;9.710;2024-02-21T04:43:54;2.45;;;1.75;;
76051;SDS011;64751;48.708;9.710;2024-02-21T04:46:21;2.95;;;1.90;;
76051;SDS011;64751;48.708;9.710;2024-02-21T04:48:53;4.53;;;2.13;;
76051;SDS011;64751;48.708;9.710;2024-02-21T04:51:21;4.53;;;1.80;;
76051;SDS011;64751;48.708;9.710;2024-02-21T04:53:49;4.70;;;2.13;;
76051;SDS011;64751;48.708;9.710;2024-02-21T04:56:21;3.25;;;1.75;;
76051;SDS011;64751;48.708;9.710;2024-02-21T04:58:55;2.58;;;1.60;;
76051;SDS011;64751;48.708;9.710;2024-02-21T05:01:22;2.42;;;1.60;;
76051;SDS011;64751;48.708;9.710;2024-02-21T05:03:49;2.92;;;1.60;;
76051;SDS011;64751;48.708;9.710;2024-02-21T05:06:17;2.65;;;1.52;;
76051;SDS011;64751;48.708;9.710;2024-02-21T05:08:49;3.22;;;1.60;;
76051;SDS011;64751;48.708;9.710;2024-02-21T05:11:22;2.15;;;1.50;;
76051;SDS011;64751;48.708;9.710;2024-02-21T05:13:56;2.13;;;1.40;;
76051;SDS011;64751;48.708;9.710;2024-02-21T05:16:28;2.72;;;1.58;;
76051;SDS011;64751;48.708;9.710;2024-02-21T05:18:55;3.17;;;1.55;;
76051;SDS011;64751;48.708;9.710;2024-02-21T05:21:23;2.30;;;1.33;;
76051;SDS011;64751;48.708;9.710;2024-02-21T05:23:55;4.88;;;1.58;;
76051;SDS011;64751;48.708;9.710;2024-02-21T05:26:28;2.97;;;1.60;;
76051;SDS011;64751;48.708;9.710;2024-02-21T05:28:57;3.05;;;1.70;;
76051;SDS011;64751;48.708;9.710;2024-02-21T05:31:42;2.53;;;1.38;;
76051;SDS011;64751;48.708;9.710;2024-02-21T05:34:26;3.33;;;1.73;;
76051;SDS011;64751;48.708;9.710;2024-02-21T05:36:59;2.60;;;1.30;;
76051;SDS011;64751;48.708;9.710;2024-02-21T05:39:31;2.40;;;1.58;;
76051;SDS011;64751;48.708;9.710;2024-02-21T05:42:04;3.38;;;1.40;;
76051;SDS011;64751;48.708;9.710;2024-02-21T05:44:38;2.55;;;1.35;;
76051;SDS011;64751;48.708;9.710;2024-02-21T05:47:10;2.65;;;1.40;;
76051;SDS011;64751;48.708;9.710;2024-02-21T05:49:41;3.25;;;1.40;;
76051;SDS011;64751;48.708;9.710;2024-02-21T05:52:08;3.92;;;1.30;;
76051;SDS011;64751;48.708;9.710;2024-02-21T05:54:40;2.50;;;1.20;;
76051;SDS011;64751;48.708;9.710;2024-02-21T05:57:13;2.05;;;1.20;;
76051;SDS011;64751;48.708;9.710;2024-02-21T05:59:46;1.80;;;1.10;;
76051;SDS011;64751;48.708;9.710;2024-02-21T06:02:19;2.53;;;1.63;;
76051;SDS011;64751;48.708;9.710;2024-02-21T06:04:47;3.33;;;1.98;;
76051;SDS011;64751;48.708;9.710;2024-02-21T06:07:14;2.95;;;1.60;;
76051;SDS011;64751;48.708;9.710;2024-02-21T06:09:47;2.17;;;1.30;;
76051;SDS011;64751;48.708;9.710;2024-02-21T06:12:19;2.05;;;1.13;;
76051;SDS011;64751;48.708;9.710;2024-02-21T06:14:48;1.60;;;1.20;;
76051;SDS011;64751;48.708;9.710;2024-02-21T06:17:16;2.45;;;1.33;;
76051;SDS011;64751;48.708;9.710;2024-02-21T06:19:48;1.85;;;1.02;;
76051;SDS011;64751;48.708;9.710;2024-02-21T06:22:16;1.83;;;1.20;;
76051;SDS011;64751;48.708;9.710;2024-02-21T06:24:48;1.70;;;1.17;;
76051;SDS011;64751;48.708;9.710;2024-02-21T06:27:16;2.05;;;1.27;;
76051;SDS011;64751;48.708;9.710;2024-02-21T06:29:50;2.95;;;1.27;;
76051;SDS011;64751;48.708;9.710;2024-02-21T06:32:22;2.13;;;1.30;;
76051;SDS011;64751;48.708;9.710;2024-02-21T06:34:55;1.90;;;1.10;;
76051;SDS011;64751;48.708;9.710;2024-02-21T06:37:27;2.03;;;0.90;;
76051;SDS011;64751;48.708;9.710;2024-02-21T06:39:55;3.70;;;1.60;;
76051;SDS011;64751;48.708;9.710;2024-02-21T06:42:28;2.17;;;1.05;;
76051;SDS011;64751;48.708;9.710;2024-02-21T06:44:57;1.80;;;1.20;;
76051;SDS011;64751;48.708;9.710;2024-02-21T06:47:24;1.75;;;1.15;;
76051;SDS011;64751;48.708;9.710;2024-02-21T06:49:51;2.08;;;1.27;;
76051;SDS011;64751;48.708;9.710;2024-02-21T06:52:19;2.03;;;1.00;;
76051;SDS011;64751;48.708;9.710;2024-02-21T06:54:47;2.13;;;1.10;;
76051;SDS011;64751;48.708;9.710;2024-02-21T06:57:14;2.58;;;1.02;;
76051;SDS011;64751;48.708;9.710;2024-02-21T06:59:42;1.73;;;1.20;;
76051;SDS011;64751;48.708;9.710;2024-02-21T07:02:11;1.70;;;1.10;;
76051;SDS011;64751;48.708;9.710;2024-02-21T07:04:38;1.92;;;1.17;;
76051;SDS011;64751;48.708;9.710;2024-02-21T07:07:05;2.63;;;1.10;;
76051;SDS011;64751;48.708;9.710;2024-02-21T07:09:38;1.85;;;1.02;;
76051;SDS011;64751;48.708;9.710;2024-02-21T07:12:10;2.95;;;1.27;;
76051;SDS011;64751;48.708;9.710;2024-02-21T07:14:44;1.80;;;0.95;;
76051;SDS011;64751;48.708;9.710;2024-02-21T07:17:13;3.03;;;1.20;;
76051;SDS011;64751;48.708;9.710;2024-02-21T07:19:45;2.33;;;1.35;;
76051;SDS011;64751;48.708;9.710;2024-02-21T07:22:18;2.28;;;0.93;;
76051;SDS011;64751;48.708;9.710;2024-02-21T07:24:51;1.70;;;1.10;;
76051;SDS011;64751;48.708;9.710;2024-02-21T07:27:19;3.47;;;1.20;;
76051;SDS011;64751;48.708;9.710;2024-02-21T07:29:51;2.72;;;0.98;;
76051;SDS011;64751;48.708;9.710;2024-02-21T07:32:20;1.83;;;1.10;;
76051;SDS011;64751;48.708;9.710;2024-02-21T07:34:52;2.00;;;1.20;;
76051;SDS011;64751;48.708;9.710;2024-02-21T07:37:20;1.75;;;1.10;;
76051;SDS011;64751;48.708;9.710;2024-02-21T07:39:47;1.30;;;1.02;;
76051;SDS011;64751;48.708;9.710;2024-02-21T07:42:19;2.75;;;1.40;;
76051;SDS011;64751;48.708;9.710;2024-02-21T07:44:47;2.75;;;1.33;;
76051;SDS011;64751;48.708;9.710;2024-02-21T07:47:14;2.53;;;1.75;;
76051;SDS011;64751;48.708;9.710;2024-02-21T07:49:44;2.00;;;1.30;;
76051;SDS011;64751;48.708;9.710;2024-02-21T07:52:16;2.22;;;1.50;;
76051;SDS011;64751;48.708;9.710;2024-02-21T07:54:49;3.20;;;1.65;;
76051;SDS011;64751;48.708;9.710;2024-02-21T07:57:17;3.33;;;1.80;;
76051;SDS011;64751;48.708;9.710;2024-02-21T07:59:49;3.65;;;2.08;;
76051;SDS011;64751;48.708;9.710;2024-02-21T08:02:17;4.63;;;2.47;;
76051;SDS011;64751;48.708;9.710;2024-02-21T08:04:46;3.95;;;2.40;;
76051;SDS011;64751;48.708;9.710;2024-02-21T08:07:18;4.40;;;2.65;;
76051;SDS011;64751;48.708;9.710;2024-02-21T08:09:45;4.40;;;2.80;;
76051;SDS011;64751;48.708;9.710;2024-02-21T08:12:13;4.72;;;2.50;;
76051;SDS011;64751;48.708;9.710;2024-02-21T08:14:40;3.75;;;2.13;;
76051;SDS011;64751;48.708;9.710;2024-02-21T08:17:13;3.55;;;2.28;;
76051;SDS011;64751;48.708;9.710;2024-02-21T08:19:40;3.45;;;2.45;;
76051;SDS011;64751;48.708;9.710;2024-02-21T08:22:09;4.53;;;2.08;;
76051;SDS011;64751;48.708;9.710;2024-02-21T08:24:36;4.00;;;2.22;;
76051;SDS011;64751;48.708;9.710;2024-02-21T08:27:04;4.18;;;2.50;;
76051;SDS011;64751;48.708;9.710;2024-02-21T08:29:32;3.55;;;1.90;;
76051;SDS011;64751;48.708;9.710;2024-02-21T08:32:04;3.38;;;2.30;;
76051;SDS011;64751;48.708;9.710;2024-02-21T08:34:32;2.90;;;1.92;;
76051;SDS011;64751;48.708;9.710;2024-02-21T08:37:00;3.63;;;1.80;;
76051;SDS011;64751;48.708;9.710;2024-02-21T08:39:34;2.88;;;2.00;;
76051;SDS011;64751;48.708;9.710;2024-02-21T08:42:06;3.03;;;2.00;;
76051;SDS011;64751;48.708;9.710;2024-02-21T08:44:39;3.58;;;1.80;;
76051;SDS011;64751;48.708;9.710;2024-02-21T08:47:08;6.13;;;2.08;;
76051;SDS011;64751;48.708;9.710;2024-02-21T08:49:35;5.55;;;2.08;;
76051;SDS011;64751;48.708;9.710;2024-02-21T08:52:08;3.13;;;2.00;;
76051;SDS011;64751;48.708;9.710;2024-02-21T08:54:42;3.58;;;1.70;;
76051;SDS011;64751;48.708;9.710;2024-02-21T08:57:15;2.75;;;1.85;;
76051;SDS011;64751;48.708;9.710;2024-02-21T08:59:43;3.20;;;2.00;;
76051;SDS011;64751;48.708;9.710;2024-02-21T09:02:15;3.35;;;2.08;;
76051;SDS011;64751;48.708;9.710;2024-02-21T09:04:43;5.40;;;2.30;;
76051;SDS011;64751;48.708;9.710;2024-02-21T09:07:10;3.22;;;1.90;;
76051;SDS011;64751;48.708;9.710;2024-02-21T09:09:44;4.15;;;1.90;;
76051;SDS011;64751;48.708;9.710;2024-02-21T09:12:16;3.97;;;2.20;;
76051;SDS011;64751;48.708;9.710;2024-02-21T09:14:44;3.70;;;2.20;;
76051;SDS011;64751;48.708;9.710;2024-02-21T09:17:15;2.83;;;2.10;;
76051;SDS011;64751;48.708;9.710;2024-02-21T09:19:43;3.30;;;2.10;;
76051;SDS011;64751;48.708;9.710;2024-02-21T09:22:16;4.65;;;2.22;;
76051;SDS011;64751;48.708;9.710;2024-02-21T09:24:49;5.35;;;2.55;;
76051;SDS011;64751;48.708;9.710;2024-02-21T09:27:22;4.05;;;2.25;;
76051;SDS011;64751;48.708;9.710;2024-02-21T09:29:54;3.45;;;2.22;;
76051;SDS011;64751;48.708;9.710;2024-02-21T09:32:27;2.75;;;2.10;;
76051;SDS011;64751;48.708;9.710;2024-02-21T09:34:59;3.72;;;2.17;;
76051;SDS011;64751;48.708;9.710;2024-02-21T09:37:32;3.30;;;2.00;;
76051;SDS011;64751;48.708;9.710;2024-02-21T09:40:06;3.13;;;1.80;;
76051;SDS011;64751;48.708;9.710;2024-02-21T09:42:36;3.97;;;1.83;;
76051;SDS011;64751;48.708;9.710;2024-02-21T09:45:12;3.10;;;1.90;;
76051;SDS011;64751;48.708;9.710;2024-02-21T09:47:50;3.42;;;1.70;;
76051;SDS011;64751;48.708;9.710;2024-02-21T09:50:29;3.92;;;1.90;;
76051;SDS011;64751;48.708;9.710;2024-02-21T09:53:03;3.42;;;1.80;;
76051;SDS011;64751;48.708;9.710;2024-02-21T09:55:39;3.90;;;2.10;;
76051;SDS011;64751;48.708;9.710;2024-02-21T09:58:12;2.80;;;1.70;;
76051;SDS011;64751;48.708;9.710;2024-02-21T10:00:39;3.35;;;1.90;;
76051;SDS011;64751;48.708;9.710;2024-02-21T10:03:07;5.40;;;1.90;;
76051;SDS011;64751;48.708;9.710;2024-02-21T10:05:36;2.40;;;1.80;;
76051;SDS011;64751;48.708;9.710;2024-02-21T10:08:03;3.10;;;1.70;;
76051;SDS011;64751;48.708;9.710;2024-02-21T10:10:41;3.28;;;1.70;;
76051;SDS011;64751;48.708;9.710;2024-02-21T10:13:10;3.63;;;1.77;;
76051;SDS011;64751;48.708;9.710;2024-02-21T10:15:38;1.95;;;1.40;;
76051;SDS011;64751;48.708;9.710;2024-02-21T10:18:05;3.40;;;1.70;;
76051;SDS011;64751;48.708;9.710;2024-02-21T10:20:33;2.15;;;1.38;;
76051;SDS011;64751;48.708;9.710;2024-02-21T10:23:05;2.20;;;1.33;;
76051;SDS011;64751;48.708;9.710;2024-02-21T10:25:35;3.78;;;1.50;;
76051;SDS011;64751;48.708;9.710;2024-02-21T10:28:05;2.97;;;1.40;;
76051;SDS011;64751;48.708;9.710;2024-02-21T10:30:38;2.90;;;1.50;;
76051;SDS011;64751;48.708;9.710;2024-02-21T10:33:05;3.55;;;1.52;;
76051;SDS011;64751;48.708;9.710;2024-02-21T10:35:37;2.42;;;1.33;;
76051;SDS011;64751;48.708;9.710;2024-02-21T10:38:05;1.40;;;1.02;;
76051;SDS011;64751;48.708;9.710;2024-02-21T10:40:32;1.60;;;0.98;;
76051;SDS011;64751;48.708;9.710;2024-02-21T10:43:06;2.05;;;1.10;;
76051;SDS011;64751;48.708;9.710;2024-02-21T10:45:39;2.42;;;1.20;;
76051;SDS011;64751;48.708;9.710;2024-02-21T10:48:08;2.92;;;1.30;;
76051;SDS011;64751;48.708;9.710;2024-02-21T10:50:47;3.50;;;1.17;;
76051;SDS011;64751;48.708;9.710;2024-02-21T10:53:24;1.98;;;1.20;;
76051;SDS011;64751;48.708;9.710;2024-02-21T10:56:06;2.38;;;1.15;;
76051;SDS011;64751;48.708;9.710;2024-02-21T10:58:39;1.85;;;1.10;;
76051;SDS011;64751;48.708;9.710;2024-02-21T11:01:13;1.30;;;0.98;;
76051;SDS011;64751;48.708;9.710;2024-02-21T11:03:49;3.05;;;1.40;;
76051;SDS011;64751;48.708;9.710;2024-02-21T11:06:20;2.10;;;1.15;;
76051;SDS011;64751;48.708;9.710;2024-02-21T11:08:58;3.35;;;1.20;;
76051;SDS011;64751;48.708;9.710;2024-02-21T11:11:35;2.40;;;1.00;;
76051;SDS011;64751;48.708;9.710;2024-02-21T11:14:05;2.13;;;1.23;;
76051;SDS011;64751;48.708;9.710;2024-02-21T11:16:36;1.90;;;1.20;;
76051;SDS011;64751;48.708;9.710;2024-02-21T11:19:06;1.83;;;1.10;;
76051;SDS011;64751;48.708;9.710;2024-02-21T11:21:40;2.80;;;1.20;;
76051;SDS011;64751;48.708;9.710;2024-02-21T11:24:07;3.33;;;1.40;;
76051;SDS011;64751;48.708;9.710;2024-02-21T11:26:36;3.03;;;1.17;;
76051;SDS011;64751;48.708;9.710;2024-02-21T11:29:11;3.30;;;1.23;;
76051;SDS011;64751;48.708;9.710;2024-02-21T11:31:43;1.50;;;0.90;;
76051;SDS011;64751;48.708;9.710;2024-02-21T11:34:12;1.95;;;1.13;;
76051;SDS011;64751;48.708;9.710;2024-02-21T11:36:46;2.33;;;1.00;;
76051;SDS011;64751;48.708;9.710;2024-02-21T11:39:18;1.88;;;1.30;;
76051;SDS011;64751;48.708;9.710;2024-02-21T11:41:47;3.47;;;1.50;;
76051;SDS011;64751;48.708;9.710;2024-02-21T11:44:16;1.50;;;1.10;;
76051;SDS011;64751;48.708;9.710;2024-02-21T11:46:48;3.13;;;1.33;;
76051;SDS011;64751;48.708;9.710;2024-02-21T11:49:16;3.22;;;1.30;;
76051;SDS011;64751;48.708;9.710;2024-02-21T11:51:48;1.92;;;0.98;;
76051;SDS011;64751;48.708;9.710;2024-02-21T11:54:16;1.55;;;1.10;;
76051;SDS011;64751;48.708;9.710;2024-02-21T11:56:49;1.67;;;1.10;;
76051;SDS011;64751;48.708;9.710;2024-02-21T11:59:17;4.00;;;1.60;;
76051;SDS011;64751;48.708;9.710;2024-02-21T12:01:50;2.50;;;1.20;;
76051;SDS011;64751;48.708;9.710;2024-02-21T12:04:23;1.77;;;1.10;;
76051;SDS011;64751;48.708;9.710;2024-02-21T12:06:56;2.20;;;1.20;;
76051;SDS011;64751;48.708;9.710;2024-02-21T12:09:23;2.17;;;1.35;;
76051;SDS011;64751;48.708;9.710;2024-02-21T12:11:57;1.85;;;1.20;;
76051;SDS011;64751;48.708;9.710;2024-02-21T12:14:27;2.13;;;1.20;;
76051;SDS011;64751;48.708;9.710;2024-02-21T12:17:01;2.35;;;1.35;;
76051;SDS011;64751;48.708;9.710;2024-02-21T12:19:34;1.95;;;1.10;;
76051;SDS011;64751;48.708;9.710;2024-02-21T12:22:02;2.42;;;1.20;;
76051;SDS011;64751;48.708;9.710;2024-02-21T12:24:37;1.55;;;1.05;;
76051;SDS011;64751;48.708;9.710;2024-02-21T12:27:05;2.45;;;1.33;;
76051;SDS011;64751;48.708;9.710;2024-02-21T12:29:34;3.22;;;1.60;;
76051;SDS011;64751;48.708;9.710;2024-02-21T12:32:02;2.63;;;1.10;;
76051;SDS011;64751;48.708;9.710;2024-02-21T12:34:35;2.10;;;1.42;;
76051;SDS011;64751;48.708;9.710;2024-02-21T12:37:04;2.33;;;1.45;;
76051;SDS011;64751;48.708;9.710;2024-02-21T12:39:37;2.67;;;1.17;;
76051;SDS011;64751;48.708;9.710;2024-02-21T12:42:09;2.63;;;1.50;;
76051;SDS011;64751;48.708;9.710;2024-02-21T12:44:39;3.63;;;1.40;;
76051;SDS011;64751;48.708;9.710;2024-02-21T12:47:06;2.53;;;1.30;;
76051;SDS011;64751;48.708;9.710;2024-02-21T12:49:34;1.77;;;1.20;;
76051;SDS011;64751;48.708;9.710;2024-02-21T12:52:06;2.70;;;1.30;;
76051;SDS011;64751;48.708;9.710;2024-02-21T12:54:34;2.42;;;1.30;;
76051;SDS011;64751;48.708;9.710;2024-02-21T12:57:06;3.63;;;1.35;;
76051;SDS011;64751;48.708;9.710;2024-02-21T12:59:40;3.47;;;1.67;;
76051;SDS011;64751;48.708;9.710;2024-02-21T13:02:13;3.35;;;1.50;;
76051;SDS011;64751;48.708;9.710;2024-02-21T13:04:45;2.70;;;1.50;;
76051;SDS011;64751;48.708;9.710;2024-02-21T13:07:16;3.83;;;1.50;;
76051;SDS011;64751;48.708;9.710;2024-02-21T13:09:43;1.83;;;1.20;;
76051;SDS011;64751;48.708;9.710;2024-02-21T13:12:11;2.65;;;1.48;;
76051;SDS011;64751;48.708;9.710;2024-02-21T13:14:39;2.40;;;1.38;;
76051;SDS011;64751;48.708;9.710;2024-02-21T13:17:09;2.03;;;1.33;;
76051;SDS011;64751;48.708;9.710;2024-02-21T13:19:42;1.85;;;1.30;;
76051;SDS011;64751;48.708;9.710;2024-02-21T13:22:09;2.22;;;1.38;;
76051;SDS011;64751;48.708;9.710;2024-02-21T13:24:42;1.63;;;1.20;;
76051;SDS011;64751;48.708;9.710;2024-02-21T13:27:14;2.10;;;1.23;;
76051;SDS011;64751;48.708;9.710;2024-02-21T13:29:43;2.38;;;1.20;;
76051;SDS011;64751;48.708;9.710;2024-02-21T13:32:11;2.78;;;1.23;;
76051;SDS011;64751;48.708;9.710;2024-02-21T13:34:43;1.67;;;1.10;;
76051;SDS011;64751;48.708;9.710;2024-02-21T13:37:15;2.55;;;1.23;;
76051;SDS011;64751;48.708;9.710;2024-02-21T13:39:48;3.10;;;1.30;;
76051;SDS011;64751;48.708;9.710;2024-02-21T13:42:20;2.60;;;1.65;;
76051;SDS011;64751;48.708;9.710;2024-02-21T13:44:49;2.40;;;1.60;;
76051;SDS011;64751;48.708;9.710;2024-02-21T13:47:22;1.85;;;1.30;;
76051;SDS011;64751;48.708;9.710;2024-02-21T13:49:54;4.20;;;1.70;;
76051;SDS011;64751;48.708;9.710;2024-02-21T13:52:23;2.08;;;1.50;;
76051;SDS011;64751;48.708;9.710;2024-02-21T13:54:52;2.30;;;1.45;;
76051;SDS011;64751;48.708;9.710;2024-02-21T13:57:24;3.00;;;1.60;;
76051;SDS011;64751;48.708;9.710;2024-02-21T13:59:58;2.83;;;1.50;;
76051;SDS011;64751;48.708;9.710;2024-02-21T14:02:26;3.47;;;1.50;;
76051;SDS011;64751;48.708;9.710;2024-02-21T14:04:53;2.17;;;1.40;;
76051;SDS011;64751;48.708;9.710;2024-02-21T14:07:20;2.90;;;1.40;;
76051;SDS011;64751;48.708;9.710;2024-02-21T14:09:53;2.65;;;1.60;;
76051;SDS011;64751;48.708;9.710;2024-02-21T14:12:20;2.10;;;1.20;;
76051;SDS011;64751;48.708;9.710;2024-02-21T14:14:53;3.45;;;1.30;;
76051;SDS011;64751;48.708;9.710;2024-02-21T14:17:24;3.10;;;1.50;;
76051;SDS011;64751;48.708;9.710;2024-02-21T14:19:51;3.92;;;1.92;;
76051;SDS011;64751;48.708;9.710;2024-02-21T14:22:24;2.88;;;1.48;;
76051;SDS011;64751;48.708;9.710;2024-02-21T14:24:57;3.70;;;1.60;;
76051;SDS011;64751;48.708;9.710;2024-02-21T14:27:24;2.72;;;1.60;;
76051;SDS011;64751;48.708;9.710;2024-02-21T14:29:56;3.03;;;1.52;;
76051;SDS011;64751;48.708;9.710;2024-02-21T14:32:25;2.40;;;1.40;;
76051;SDS011;64751;48.708;9.710;2024-02-21T14:34:53;2.20;;;1.23;;
76051;SDS011;64751;48.708;9.710;2024-02-21T14:37:25;1.88;;;1.10;;
76051;SDS011;64751;48.708;9.710;2024-02-21T14:39:58;3.15;;;1.20;;
76051;SDS011;64751;48.708;9.710;2024-02-21T14:42:26;1.83;;;1.20;;
76051;SDS011;64751;48.708;9.710;2024-02-21T14:44:53;2.28;;;1.23;;
76051;SDS011;64751;48.708;9.710;2024-02-21T14:47:35;1.90;;;0.93;;
76051;SDS011;64751;48.708;9.710;2024-02-21T14:50:08;3.10;;;1.45;;
76051;SDS011;64751;48.708;9.710;2024-02-21T14:52:36;2.42;;;1.15;;
76051;SDS011;64751;48.708;9.710;2024-02-21T14:55:09;2.08;;;1.20;;
76051;SDS011;64751;48.708;9.710;2024-02-21T14:57:38;2.83;;;1.25;;
76051;SDS011;64751;48.708;9.710;2024-02-21T15:00:07;2.25;;;1.08;;
76051;SDS011;64751;48.708;9.710;2024-02-21T15:02:38;2.20;;;1.30;;
76051;SDS011;64751;48.708;9.710;2024-02-21T15:05:05;3.03;;;1.33;;
76051;SDS011;64751;48.708;9.710;2024-02-21T15:07:33;1.88;;;1.10;;